Time;durP1;ratioP1;P1;durP2;ratioP2;P2;SDS_P1;SDS_P2;PMS_P1;PMS_P2;Temp;Humidity;BMP_temperature;BMP_pressure;BME280_temperature;BME280_humidity;BME280_pressure;Samples;Min_cycle;Max_cycle;Signal;HPM_P1;HPM_P2
2022/02/03 00:05:17;;;;;;;13.57;5.90;;;2.60;99.90;;;;;;5014835;28;20025;-82
2022/02/03 00:07:55;;;;;;;10.40;6.23;;;2.60;99.90;;;;;;5011345;28;20085;-81
2022/02/03 00:24:27;;;;;;;10.70;6.57;;;2.60;99.90;;;;;;5014253;28;20133;-80
2022/02/03 00:27:03;;;;;;;11.73;6.47;;;2.60;99.90;;;;;;5013657;28;20034;-80
2022/02/03 00:29:49;;;;;;;10.77;7.30;;;2.60;99.90;;;;;;5013867;28;20022;-80
2022/02/03 00:48:58;;;;;;;8.53;5.70;;;2.60;99.90;;;;;;5013520;28;20052;-87
2022/02/03 00:51:25;;;;;;;12.00;6.57;;;2.60;99.90;;;;;;5014340;28;20022;-87
2022/02/03 00:53:51;;;;;;;8.70;6.27;;;2.60;99.90;;;;;;5013326;28;20041;-87
2022/02/03 00:56:26;;;;;;;13.37;6.50;;;2.60;99.90;;;;;;5013492;28;20030;-87
2022/02/03 00:59:07;;;;;;;9.88;6.90;;;2.60;99.90;;;;;;5013569;28;20072;-87
2022/02/03 01:01:38;;;;;;;11.03;7.77;;;2.50;99.90;;;;;;4995514;28;20414;-79
2022/02/03 01:04:09;;;;;;;10.57;6.43;;;2.50;99.90;;;;;;4994049;28;20037;-79
2022/02/03 01:06:41;;;;;;;10.53;6.73;;;2.50;99.90;;;;;;5012146;28;20101;-79
2022/02/03 01:09:07;;;;;;;12.43;6.67;;;2.50;99.90;;;;;;5012285;28;20116;-78
2022/02/03 01:11:42;;;;;;;13.50;6.60;;;2.50;99.90;;;;;;5012486;28;20041;-78
2022/02/03 01:14:16;;;;;;;10.80;6.47;;;2.50;99.90;;;;;;5012141;28;20029;-78
2022/02/03 01:19:55;;;;;;;12.13;7.37;;;2.50;99.90;;;;;;5011996;28;20037;-79
2022/02/03 01:43:57;;;;;;;10.57;6.23;;;2.70;99.90;;;;;;5010884;28;20498;-78
2022/02/03 01:46:45;;;;;;;10.13;6.20;;;2.70;99.90;;;;;;5011576;28;20095;-78
2022/02/03 01:49:16;;;;;;;10.30;6.17;;;2.70;99.90;;;;;;5010163;28;20037;-78
2022/02/03 01:51:54;;;;;;;10.80;6.40;;;2.70;99.90;;;;;;5011123;28;20033;-78
2022/02/03 01:54:27;;;;;;;11.40;6.30;;;2.60;99.90;;;;;;5011099;28;20109;-78
2022/02/03 01:57:07;;;;;;;11.07;6.57;;;2.60;99.90;;;;;;5011554;28;20018;-78
2022/02/03 01:59:35;;;;;;;10.47;6.97;;;2.60;99.90;;;;;;5011223;28;20029;-77
2022/02/03 02:02:05;;;;;;;9.50;5.87;;;2.50;99.90;;;;;;5011549;28;20293;-78
2022/02/03 02:05:00;;;;;;;12.00;7.70;;;2.50;99.90;;;;;;5011183;28;20026;-78
2022/02/03 02:07:30;;;;;;;11.55;7.03;;;2.50;99.90;;;;;;5011459;28;20088;-79
2022/02/03 02:14:04;;;;;;;11.77;7.50;;;2.50;99.90;;;;;;5011554;28;20101;-78
2022/02/03 02:19:13;;;;;;;14.43;8.20;;;2.60;99.90;;;;;;5010815;28;20161;-78
2022/02/03 02:38:52;;;;;;;9.70;7.00;;;2.70;99.90;;;;;;5010810;28;20098;-78
2022/02/03 02:45:09;;;;;;;11.20;7.10;;;2.70;99.90;;;;;;4940219;29;20075;-79
2022/02/03 02:48:17;;;;;;;11.67;7.20;;;2.60;99.90;;;;;;4931324;29;20437;-79
2022/02/03 02:51:03;;;;;;;11.17;7.83;;;2.60;99.90;;;;;;4948706;28;20454;-80
2022/02/03 02:54:10;;;;;;;;;;;2.60;99.90;;;;;;5011221;28;20030;-78
2022/02/03 02:56:48;;;;;;;11.27;7.50;;;2.60;99.90;;;;;;5013653;28;19917;-79
2022/02/03 03:35:49;;;;;;;11.03;8.33;;;3.10;99.90;;;;;;5001683;28;20073;-79
2022/02/03 03:38:20;;;;;;;11.53;7.97;;;3.20;99.90;;;;;;5005276;28;20132;-79
2022/02/03 03:40:53;;;;;;;11.13;7.90;;;3.20;99.90;;;;;;5013317;28;20018;-79
2022/02/03 03:43:29;;;;;;;12.43;8.23;;;3.30;99.90;;;;;;5013059;28;20037;-79
2022/02/03 03:45:55;;;;;;;10.73;7.93;;;3.30;99.90;;;;;;5013459;28;20113;-79
2022/02/03 03:48:34;;;;;;;11.10;8.43;;;3.40;99.90;;;;;;4995197;28;20048;-79
2022/02/03 03:51:02;;;;;;;11.93;7.57;;;3.40;99.90;;;;;;5013036;28;20030;-79
2022/02/03 03:53:38;;;;;;;13.53;7.40;;;3.40;99.90;;;;;;5013450;28;20529;-86
2022/02/03 03:56:14;;;;;;;11.07;7.23;;;3.50;99.90;;;;;;5015279;28;20029;-86
2022/02/03 03:59:18;;;;;;;9.17;7.03;;;3.50;99.90;;;;;;5015095;28;20470;-85
2022/02/03 04:39:58;;;;;;;;;;;3.80;99.90;;;;;;5013093;28;20036;-78
2022/02/03 04:54:57;;;;;;;10.48;5.82;;;3.80;99.90;;;;;;5012244;28;20044;-78
2022/02/03 05:00:49;;;;;;;9.57;5.07;;;3.90;99.90;;;;;;5012178;28;20032;-78
2022/02/03 05:06:29;;;;;;;6.00;3.93;;;3.90;99.90;;;;;;5012652;28;20025;-78
2022/02/03 05:09:28;;;;;;;6.77;4.53;;;3.90;99.90;;;;;;5012339;28;20049;-78
2022/02/03 05:12:37;;;;;;;5.83;4.17;;;3.90;99.90;;;;;;5001819;28;20135;-77
2022/02/03 05:15:35;;;;;;;7.27;3.67;;;3.90;99.90;;;;;;5004303;28;20034;-77
2022/02/03 05:33:46;;;;;;;7.93;3.90;;;3.80;99.90;;;;;;4975495;28;20119;-78
2022/02/03 05:42:03;;;;;;;6.07;4.00;;;3.90;99.90;;;;;;5011718;28;20021;-77
2022/02/03 05:44:51;;;;;;;5.10;3.90;;;3.90;99.90;;;;;;5009691;28;20022;-79
2022/02/03 05:50:17;;;;;;;7.67;3.60;;;3.90;99.90;;;;;;5008047;28;20084;-78
2022/02/03 06:06:28;;;;;;;4.77;3.70;;;4.00;99.90;;;;;;5001961;28;20076;-79
2022/02/03 06:17:00;;;;;;;6.07;3.77;;;4.00;99.90;;;;;;5011293;28;20064;-79
2022/02/03 06:27:42;;;;;;;6.80;3.83;;;4.10;99.90;;;;;;4976732;28;20045;-78
2022/02/03 06:30:10;;;;;;;6.33;3.77;;;4.10;99.90;;;;;;4991681;28;20125;-79
2022/02/03 06:32:42;;;;;;;8.03;4.40;;;4.10;99.90;;;;;;5005944;28;20113;-79
2022/02/03 06:35:10;;;;;;;5.53;4.23;;;4.10;99.90;;;;;;5007081;28;20036;-79
2022/02/03 06:37:37;;;;;;;5.83;3.80;;;4.10;99.90;;;;;;4996009;28;20069;-79
2022/02/03 06:40:09;;;;;;;5.10;4.20;;;4.20;99.90;;;;;;5014131;28;20434;-79
2022/02/03 06:42:35;;;;;;;8.03;4.10;;;4.20;99.90;;;;;;4996735;28;20021;-78
2022/02/03 06:45:29;;;;;;;8.40;3.93;;;4.20;99.90;;;;;;5014124;28;20487;-77
2022/02/03 06:48:00;;;;;;;6.00;3.87;;;4.20;99.90;;;;;;4994209;28;20458;-77
2022/02/03 06:50:39;;;;;;;5.93;3.87;;;4.20;99.90;;;;;;4990771;28;20021;-78
2022/02/03 06:58:37;;;;;;;5.90;3.73;;;4.20;99.90;;;;;;4936866;29;20385;-87
2022/02/03 07:01:13;;;;;;;8.07;4.67;;;4.30;99.90;;;;;;4984413;28;20045;-81
2022/02/03 07:03:43;;;;;;;7.23;3.90;;;4.30;99.90;;;;;;5013773;28;20105;-85
2022/02/03 07:06:08;;;;;;;8.33;4.13;;;4.30;99.90;;;;;;5013812;28;20486;-86
2022/02/03 07:08:36;;;;;;;9.23;4.60;;;4.30;99.90;;;;;;5014877;28;20113;-84
2022/02/03 07:11:02;;;;;;;6.50;4.40;;;4.30;99.90;;;;;;5014617;28;20025;-84
2022/02/03 07:13:28;;;;;;;5.80;4.60;;;4.30;99.90;;;;;;5011026;28;20634;-84
2022/02/03 07:15:53;;;;;;;6.90;4.53;;;4.40;99.90;;;;;;5010822;28;20081;-83
2022/02/03 07:18:19;;;;;;;6.17;4.53;;;4.40;99.90;;;;;;5011533;28;20320;-82
2022/02/03 07:20:45;;;;;;;7.07;4.53;;;4.40;99.90;;;;;;5008382;28;20101;-82
2022/02/03 07:23:11;;;;;;;7.37;4.40;;;4.40;99.90;;;;;;5001274;28;20558;-82
2022/02/03 07:25:37;;;;;;;6.23;4.90;;;4.40;99.90;;;;;;5001933;28;20360;-83
2022/02/03 07:28:04;;;;;;;8.07;4.40;;;4.50;99.90;;;;;;4989695;28;20064;-83
2022/02/03 07:30:30;;;;;;;6.00;4.57;;;4.50;99.90;;;;;;5008159;28;20097;-83
2022/02/03 07:32:58;;;;;;;6.07;4.47;;;4.50;99.90;;;;;;5013430;28;20704;-82
2022/02/03 07:35:24;;;;;;;5.13;4.20;;;4.50;99.90;;;;;;4996065;28;20038;-82
2022/02/03 07:37:51;;;;;;;5.43;4.27;;;4.50;99.90;;;;;;5013851;28;20665;-82
2022/02/03 07:40:18;;;;;;;6.80;4.70;;;4.60;99.90;;;;;;5013484;28;20028;-83
2022/02/03 07:42:49;;;;;;;5.20;4.07;;;4.60;99.90;;;;;;4995953;28;20738;-83
2022/02/03 07:45:16;;;;;;;6.13;4.00;;;4.70;99.90;;;;;;5012964;28;20033;-82
2022/02/03 07:47:47;;;;;;;7.63;3.93;;;4.70;99.90;;;;;;5008809;28;20044;-83
2022/02/03 07:50:14;;;;;;;7.30;4.40;;;4.70;99.90;;;;;;5011422;28;20044;-83
2022/02/03 07:52:39;;;;;;;8.17;4.60;;;4.80;99.90;;;;;;5011698;28;20033;-83
2022/02/03 07:55:06;;;;;;;5.33;4.10;;;4.80;99.90;;;;;;5012321;28;20029;-85
2022/02/03 07:57:32;;;;;;;9.43;5.00;;;4.90;99.90;;;;;;5011491;28;20097;-85
2022/02/03 07:59:58;;;;;;;6.23;4.30;;;4.90;99.90;;;;;;4994407;28;20065;-85
2022/02/03 08:02:24;;;;;;;7.00;4.57;;;5.00;99.90;;;;;;5011852;28;20053;-84
2022/02/03 08:04:51;;;;;;;6.67;5.23;;;5.00;99.90;;;;;;5011741;28;20037;-84
2022/02/03 08:07:19;;;;;;;6.97;4.97;;;5.10;99.90;;;;;;5011963;28;20026;-84
2022/02/03 08:09:55;;;;;;;6.57;5.00;;;5.20;99.90;;;;;;5011885;28;20045;-85
2022/02/03 08:12:25;;;;;;;9.13;5.37;;;5.30;99.90;;;;;;4992244;28;20034;-84
2022/02/03 08:14:52;;;;;;;6.53;4.53;;;5.40;99.90;;;;;;5008353;28;20593;-83
2022/02/03 08:17:24;;;;;;;8.37;5.20;;;5.50;99.90;;;;;;5012044;28;20394;-84
2022/02/03 08:20:00;;;;;;;7.33;4.73;;;5.50;99.90;;;;;;5012105;28;20018;-84
2022/02/03 08:22:32;;;;;;;5.27;4.30;;;5.60;99.90;;;;;;4993942;28;20022;-84
2022/02/03 08:25:11;;;;;;;5.87;4.37;;;5.60;99.90;;;;;;5010864;28;20087;-84
2022/02/03 08:28:00;;;;;;;5.00;4.20;;;5.70;99.90;;;;;;5010891;28;20534;-84
2022/02/03 08:30:46;;;;;;;6.45;4.10;;;5.70;99.90;;;;;;5011052;28;20084;-85
2022/02/03 08:33:18;;;;;;;4.97;3.87;;;5.80;99.90;;;;;;5011513;28;20424;-85
2022/02/03 08:35:47;;;;;;;6.37;4.40;;;5.90;99.90;;;;;;5011745;28;20112;-85
2022/02/03 08:38:19;;;;;;;5.73;4.10;;;5.90;99.90;;;;;;5011490;28;20044;-84
2022/02/03 08:43:16;;;;;;;5.27;3.90;;;6.10;99.90;;;;;;5011312;28;20489;-83
2022/02/03 08:45:43;;;;;;;4.83;3.73;;;6.20;99.90;;;;;;5011573;28;20105;-83
2022/02/03 08:48:11;;;;;;;4.13;3.30;;;6.30;99.90;;;;;;5011562;28;20033;-83
2022/02/03 08:50:37;;;;;;;4.97;3.20;;;6.40;99.90;;;;;;5010862;28;20036;-83
2022/02/03 08:53:13;;;;;;;4.07;3.30;;;6.50;99.90;;;;;;5004877;28;20053;-83
2022/02/03 08:56:02;;;;;;;;;;;6.50;99.90;;;;;;5001934;28;20034;-83
2022/02/03 08:58:56;;;;;;;4.00;3.20;;;6.70;99.90;;;;;;5006502;28;19910;-83
2022/02/03 09:29:47;;;;;;;3.00;2.37;;;7.80;99.90;;;;;;5010231;28;20140;-83
2022/02/03 09:34:51;;;;;;;3.33;2.47;;;7.90;99.90;;;;;;4940606;28;20074;-83
2022/02/03 09:38:27;;;;;;;8.97;2.80;;;7.90;99.90;;;;;;5010169;28;20394;-83
2022/02/03 09:57:02;;;;;;;3.77;2.00;;;7.90;99.90;;;;;;5010566;28;20048;-82
2022/02/03 09:59:34;;;;;;;2.80;2.17;;;8.00;99.90;;;;;;5007674;28;20041;-78
2022/02/03 10:02:09;;;;;;;2.10;1.60;;;8.00;99.90;;;;;;5011835;28;20018;-79
2022/02/03 10:04:45;;;;;;;2.60;1.52;;;8.10;99.90;;;;;;5010806;28;20122;-79
2022/02/03 10:07:18;;;;;;;2.23;1.73;;;8.10;99.90;;;;;;5006391;28;20041;-78
2022/02/03 10:09:45;;;;;;;2.10;1.60;;;8.10;99.90;;;;;;5011030;28;20459;-78
2022/02/03 10:12:12;;;;;;;2.70;1.60;;;8.30;99.90;;;;;;5014232;28;20774;-78
2022/02/03 10:14:46;;;;;;;1.60;1.37;;;8.50;99.90;;;;;;5014252;28;20144;-79
2022/02/03 10:17:13;;;;;;;1.70;1.50;;;8.60;99.90;;;;;;5019676;28;20847;-79
2022/02/03 10:19:45;;;;;;;1.83;1.57;;;8.70;99.90;;;;;;5034496;28;20029;-79
2022/02/03 10:22:14;;;;;;;2.00;1.50;;;8.80;99.90;;;;;;5013356;28;20041;-80
2022/02/03 10:24:42;;;;;;;1.73;1.57;;;9.00;99.90;;;;;;5014254;28;20022;-77
2022/02/03 10:27:20;;;;;;;2.53;1.10;;;9.10;99.90;;;;;;4996975;28;20116;-79
2022/02/03 10:29:47;;;;;;;1.53;1.30;;;9.20;99.90;;;;;;5014129;28;20032;-78
2022/02/03 10:32:13;;;;;;;1.90;1.43;;;9.40;99.90;;;;;;5014242;28;20041;-79
2022/02/03 10:34:43;;;;;;;1.37;1.20;;;9.40;99.90;;;;;;5016573;28;20483;-79
2022/02/03 10:37:46;;;;;;;1.73;1.37;;;9.40;99.90;;;;;;5014207;28;20054;-79
2022/02/03 10:43:10;;;;;;;1.60;1.30;;;9.30;99.90;;;;;;5014165;28;20080;-79
2022/02/03 10:45:44;;;;;;;1.20;1.10;;;9.20;99.90;;;;;;5013471;28;20064;-78
2022/02/03 10:48:37;;;;;;;1.63;1.30;;;9.20;99.90;;;;;;5014013;28;20032;-78
2022/02/03 10:54:16;;;;;;;2.03;1.30;;;8.90;99.90;;;;;;5013237;28;20371;-79
2022/02/03 10:57:37;;;;;;;2.67;1.67;;;8.80;99.90;;;;;;5013131;28;20437;-78
2022/02/03 11:08:38;;;;;;;1.67;1.30;;;8.60;99.90;;;;;;5016791;28;20036;-79
2022/02/03 11:11:01;;;;;;;2.20;1.50;;;8.50;99.90;;;;;;5020931;28;20541;-79
2022/02/03 11:13:30;;;;;;;2.50;1.40;;;8.50;99.90;;;;;;5013345;28;20093;-79
2022/02/03 11:16:09;;;;;;;1.30;1.10;;;8.60;99.90;;;;;;4993651;28;20029;-79
2022/02/03 11:18:37;;;;;;;1.33;1.17;;;8.70;99.90;;;;;;5012619;28;20029;-79
2022/02/03 11:21:03;;;;;;;1.40;1.10;;;8.90;99.90;;;;;;4995025;28;20467;-80
2022/02/03 11:26:08;;;;;;;1.70;1.10;;;9.20;99.90;;;;;;5003663;28;20113;-79
2022/02/03 11:39:26;;;;;;;1.20;1.10;;;9.60;99.90;;;;;;5013098;28;20026;-79
2022/02/03 12:04:55;;;;;;;3.67;1.67;;;9.50;99.90;;;;;;5011975;28;20033;-79
2022/02/03 12:20:54;;;;;;;2.77;1.37;;;9.30;99.90;;;;;;5008575;28;20060;-80
2022/02/03 12:26:27;;;;;;;2.13;1.30;;;9.40;99.90;;;;;;5002555;28;20073;-80
2022/02/03 12:28:55;;;;;;;3.53;1.17;;;9.50;99.90;;;;;;5006679;28;20021;-80
2022/02/03 12:31:53;;;;;;;2.83;1.40;;;9.50;99.90;;;;;;4980514;28;20460;-80
2022/02/03 12:37:14;;;;;;;2.57;1.33;;;9.50;99.90;;;;;;4992206;28;20057;-80
2022/02/03 12:39:49;;;;;;;3.75;1.15;;;9.40;99.90;;;;;;4991874;28;20057;-80
2022/02/03 12:45:15;;;;;;;1.20;1.08;;;9.50;99.90;;;;;;5011178;28;20033;-80
2022/02/03 12:47:42;;;;;;;4.17;0.97;;;9.60;99.90;;;;;;5010774;28;20100;-80
2022/02/03 12:50:19;;;;;;;2.28;1.30;;;9.60;99.90;;;;;;5011685;28;20029;-80
2022/02/03 12:52:45;;;;;;;2.07;1.03;;;9.60;99.90;;;;;;4993857;28;20053;-80
2022/02/03 12:55:20;;;;;;;1.77;1.37;;;9.50;99.90;;;;;;5011374;28;20080;-80
2022/02/03 12:57:48;;;;;;;3.08;1.25;;;9.60;99.90;;;;;;5000998;28;20026;-79
2022/02/03 13:00:20;;;;;;;4.27;1.93;;;9.50;99.90;;;;;;5011342;28;20430;-80
2022/02/03 13:02:57;;;;;;;1.50;0.90;;;9.50;99.90;;;;;;5011719;28;20037;-80
2022/02/03 13:05:25;;;;;;;3.70;1.10;;;9.50;99.90;;;;;;5012136;28;20050;-80
2022/02/03 13:07:56;;;;;;;4.03;1.00;;;9.50;99.90;;;;;;5012276;28;20025;-77
2022/02/03 13:10:25;;;;;;;3.43;1.10;;;9.50;99.90;;;;;;5023194;28;20022;-77
2022/02/03 13:13:02;;;;;;;2.10;1.10;;;9.50;99.90;;;;;;5010982;28;20022;-79
2022/02/03 13:15:33;;;;;;;2.90;1.43;;;9.60;99.90;;;;;;5011028;28;20092;-80
2022/02/03 13:18:03;;;;;;;4.87;2.33;;;9.50;99.90;;;;;;5011290;28;20430;-77
2022/02/03 13:20:38;;;;;;;3.33;1.10;;;9.60;99.90;;;;;;4993653;28;20105;-77
2022/02/03 13:23:10;;;;;;;2.60;1.15;;;9.80;99.90;;;;;;4993195;28;20346;-78
2022/02/03 13:25:57;;;;;;;2.17;1.20;;;9.80;99.90;;;;;;5010797;28;20109;-78
2022/02/03 13:31:08;;;;;;;5.40;2.28;;;9.80;99.90;;;;;;5011069;28;20037;-78
2022/02/03 13:33:44;;;;;;;5.60;1.43;;;9.80;99.90;;;;;;5010454;28;20670;-78
2022/02/03 13:36:20;;;;;;;6.50;4.87;;;9.80;99.90;;;;;;5010811;28;20050;-78
2022/02/03 13:41:32;;;;;;;4.07;1.37;;;9.90;99.90;;;;;;5007221;28;20037;-79
2022/02/03 13:44:07;;;;;;;3.57;1.60;;;9.90;99.90;;;;;;5010507;28;20486;-79
2022/02/03 13:46:38;;;;;;;5.15;1.42;;;10.00;99.90;;;;;;5010377;28;20041;-79
2022/02/03 13:49:12;;;;;;;5.75;3.55;;;10.00;99.90;;;;;;5010764;28;20101;-80
2022/02/03 13:51:39;;;;;;;3.97;1.73;;;10.20;99.90;;;;;;5009083;28;20061;-80
2022/02/03 14:10:30;;;;;;;3.70;1.70;;;10.20;99.90;;;;;;5008806;28;20502;-80
2022/02/03 14:12:16;;;;;;;3.33;1.63;;;10.10;99.90;;;;;;4990334;28;20041;-80
2022/02/03 14:22:04;;;;;;;3.20;0.90;;;9.90;99.90;;;;;;5009561;28;20140;-80
2022/02/03 14:27:28;;;;;;;8.30;1.10;;;9.90;99.90;;;;;;4954752;28;20039;-80
2022/02/03 14:30:02;;;;;;;2.20;1.05;;;9.80;99.90;;;;;;4989896;28;20041;-77
2022/02/03 14:32:30;;;;;;;3.97;1.33;;;9.80;99.90;;;;;;5003711;28;20102;-78
2022/02/03 14:34:57;;;;;;;4.63;1.10;;;9.80;99.90;;;;;;5010174;28;20022;-78
2022/02/03 14:42:39;;;;;;;4.77;1.20;;;9.60;99.90;;;;;;5004347;28;20114;-79
2022/02/03 14:45:07;;;;;;;1.93;1.00;;;9.50;99.90;;;;;;5001591;28;20112;-79
2022/02/03 14:47:33;;;;;;;5.57;1.20;;;9.50;99.90;;;;;;5003080;28;20494;-79
2022/02/03 14:50:01;;;;;;;4.30;1.20;;;9.50;99.90;;;;;;5001802;28;20447;-79
2022/02/03 14:52:54;;;;;;;16.53;10.47;;;9.50;99.90;;;;;;5007707;28;20025;-79
2022/02/03 14:58:11;;;;;;;3.93;2.23;;;9.50;99.90;;;;;;5013903;28;20037;-78
2022/02/03 15:00:37;;;;;;;6.67;3.10;;;9.40;99.90;;;;;;5013455;28;20030;-78
2022/02/03 15:03:03;;;;;;;4.67;2.60;;;9.30;99.90;;;;;;4993118;28;20022;-79
2022/02/03 15:05:35;;;;;;;3.90;2.20;;;9.30;99.90;;;;;;4994427;28;20030;-79
2022/02/03 15:08:06;;;;;;;5.83;1.50;;;9.20;99.90;;;;;;4991883;28;20029;-79
2022/02/03 15:13:17;;;;;;;3.13;1.70;;;9.10;99.90;;;;;;5013724;28;20030;-79
2022/02/03 15:15:42;;;;;;;8.03;3.20;;;9.00;99.90;;;;;;5012552;28;20498;-79
2022/02/03 15:18:08;;;;;;;3.50;2.17;;;9.00;99.90;;;;;;4994730;28;20034;-79
2022/02/03 15:20:35;;;;;;;4.60;2.40;;;8.90;99.90;;;;;;5013202;28;20740;-79
2022/02/03 15:23:02;;;;;;;3.97;2.50;;;8.80;99.90;;;;;;5013149;28;20097;-78
2022/02/03 15:25:29;;;;;;;3.13;1.87;;;8.80;99.90;;;;;;5001864;28;20040;-79
2022/02/03 15:27:55;;;;;;;7.40;2.00;;;8.70;99.90;;;;;;5013128;28;20021;-79
2022/02/03 15:30:21;;;;;;;4.33;2.20;;;8.70;99.90;;;;;;5013125;28;20030;-79
2022/02/03 15:32:47;;;;;;;2.87;1.70;;;8.60;99.90;;;;;;5012626;28;20033;-79
2022/02/03 15:35:22;;;;;;;4.80;2.23;;;8.60;99.90;;;;;;5011564;28;20062;-79
2022/02/03 15:37:49;;;;;;;5.90;2.00;;;8.50;99.90;;;;;;5005016;28;20045;-80
2022/02/03 15:40:24;;;;;;;9.47;3.20;;;8.50;99.90;;;;;;5002202;28;20479;-64
2022/02/03 15:43:28;;;;;;;6.97;3.87;;;8.40;99.90;;;;;;4996415;28;20116;-82
2022/02/03 15:45:49;;;;;;;6.20;2.40;;;8.30;99.90;;;;;;5000954;28;20048;-82
2022/02/03 15:56:32;;;;;;;6.80;2.60;;;8.10;99.90;;;;;;5013678;28;20032;-84
2022/02/03 16:01:44;;;;;;;20.93;9.23;;;7.90;99.90;;;;;;5006705;28;20284;-83
2022/02/03 16:13:15;;;;;;;16.90;9.73;;;7.80;99.90;;;;;;5009889;28;20088;-83
2022/02/03 16:17:57;;;;;;;16.37;5.90;;;7.30;99.90;;;;;;5013563;28;20174;-84
2022/02/03 16:20:29;;;;;;;20.43;5.67;;;7.20;99.90;;;;;;4995969;28;20112;-83
2022/02/03 16:23:22;;;;;;;10.60;4.83;;;7.10;99.90;;;;;;5013366;28;20014;-83
2022/02/03 16:52:58;;;;;;;17.80;6.70;;;6.30;99.90;;;;;;5012678;28;20014;-83
2022/02/03 16:55:26;;;;;;;14.63;5.50;;;6.30;99.90;;;;;;5012933;28;20466;-83
2022/02/03 16:57:55;;;;;;;11.60;4.63;;;6.30;99.90;;;;;;5012624;28;20022;-84
2022/02/03 17:00:20;;;;;;;13.10;6.13;;;6.20;99.90;;;;;;5013079;28;20029;-82
2022/02/03 17:02:46;;;;;;;21.70;9.33;;;6.20;99.90;;;;;;5012438;28;20029;-83
2022/02/03 17:05:13;;;;;;;11.33;5.40;;;6.20;99.90;;;;;;4994121;28;20030;-84
2022/02/03 17:07:38;;;;;;;9.17;4.03;;;6.10;99.90;;;;;;4994077;28;20482;-86
2022/02/03 17:10:05;;;;;;;8.13;3.13;;;6.10;99.90;;;;;;4994229;28;20027;-82
2022/02/03 17:12:30;;;;;;;7.67;3.20;;;6.00;99.90;;;;;;4993779;28;20030;-82
2022/02/03 17:14:56;;;;;;;10.73;4.40;;;6.00;99.90;;;;;;5007712;28;20124;-82
2022/02/03 17:17:22;;;;;;;6.33;4.30;;;6.00;99.90;;;;;;5013621;28;20025;-82
2022/02/03 17:19:48;;;;;;;8.30;4.30;;;5.90;99.90;;;;;;5013464;28;20474;-82
2022/02/03 17:22:17;;;;;;;9.23;3.93;;;5.90;99.90;;;;;;5013317;28;20383;-82
2022/02/03 17:24:52;;;;;;;7.17;4.43;;;5.80;99.90;;;;;;5013284;28;20048;-80
2022/02/03 17:27:27;;;;;;;8.57;4.90;;;5.80;99.90;;;;;;5013089;28;20028;-80
2022/02/03 18:10:38;;;;;;;9.00;5.60;;;5.20;99.90;;;;;;5012177;28;20037;-84
2022/02/03 18:29:53;;;;;;;11.60;6.30;;;5.10;99.90;;;;;;5016764;28;20022;-87
2022/02/03 18:36:00;;;;;;;10.00;6.40;;;5.00;99.90;;;;;;5017316;28;20113;-82
2022/02/03 18:51:21;;;;;;;13.10;5.70;;;5.10;99.90;;;;;;5017008;28;20037;-84
2022/02/03 18:56:39;;;;;;;7.50;5.13;;;5.10;99.90;;;;;;5016075;28;20033;-84
2022/02/03 19:21:41;;;;;;;15.80;10.13;;;4.80;99.90;;;;;;5016675;28;20069;-84
2022/02/03 19:24:17;;;;;;;15.37;9.73;;;4.80;99.90;;;;;;5013096;28;20054;-84
2022/02/03 20:11:54;;;;;;;9.43;6.50;;;4.50;99.90;;;;;;5008052;28;20021;-77
2022/02/03 20:14:20;;;;;;;12.30;6.60;;;4.60;99.90;;;;;;5004261;28;20451;-77
2022/02/03 20:16:46;;;;;;;9.43;6.00;;;4.50;99.90;;;;;;5014362;28;20037;-77
2022/02/03 20:19:12;;;;;;;8.80;6.00;;;4.50;99.90;;;;;;5010033;28;20027;-85
2022/02/03 20:21:41;;;;;;;10.07;6.63;;;4.50;99.90;;;;;;5001423;28;20521;-84
2022/02/03 20:24:07;;;;;;;10.33;6.60;;;4.50;99.90;;;;;;4996154;28;20027;-83
2022/02/03 20:26:34;;;;;;;11.07;6.13;;;4.50;99.90;;;;;;4994983;28;20033;-83
2022/02/03 20:29:00;;;;;;;10.93;6.80;;;4.50;99.90;;;;;;4995126;28;20030;-77
2022/02/03 20:31:26;;;;;;;10.83;6.43;;;4.50;99.90;;;;;;4994760;28;20041;-77
2022/02/03 20:33:51;;;;;;;9.07;5.33;;;4.50;99.90;;;;;;4995023;28;20042;-83
2022/02/03 20:36:17;;;;;;;9.03;5.57;;;4.60;99.90;;;;;;4994570;28;20054;-84
2022/02/03 20:38:43;;;;;;;6.90;5.00;;;4.50;99.90;;;;;;4977245;28;20034;-83
2022/02/03 20:41:08;;;;;;;7.57;5.27;;;4.50;99.90;;;;;;4993176;28;20033;-83
2022/02/03 20:43:34;;;;;;;7.27;4.93;;;4.50;99.90;;;;;;4994639;28;20026;-83
2022/02/03 20:46:00;;;;;;;8.07;4.83;;;4.50;99.90;;;;;;4994322;28;20026;-77
2022/02/03 20:48:29;;;;;;;7.70;5.00;;;4.50;99.90;;;;;;4993673;28;20022;-76
2022/02/03 20:50:55;;;;;;;7.50;4.97;;;4.50;99.90;;;;;;4994552;28;20023;-76
2022/02/03 20:53:21;;;;;;;7.10;5.03;;;4.50;99.90;;;;;;4999711;28;20482;-76
2022/02/03 20:55:47;;;;;;;8.47;4.40;;;4.50;99.90;;;;;;5013871;28;20026;-77
2022/02/03 20:58:17;;;;;;;8.70;4.90;;;4.50;99.90;;;;;;5013862;28;20018;-76
2022/02/03 21:00:51;;;;;;;6.40;4.10;;;4.50;99.90;;;;;;5013618;28;20148;-76
2022/02/03 21:03:36;;;;;;;7.77;4.30;;;4.50;99.90;;;;;;5013892;28;20061;-76
2022/02/03 21:06:02;;;;;;;6.32;3.80;;;4.50;99.90;;;;;;5013586;28;20029;-76
2022/02/03 21:08:35;;;;;;;5.33;4.17;;;4.50;99.90;;;;;;5013576;28;20033;-76
2022/02/03 21:11:02;;;;;;;7.53;5.17;;;4.50;99.90;;;;;;5013825;28;20022;-76
2022/02/03 21:13:27;;;;;;;5.40;4.30;;;4.50;99.90;;;;;;5013750;28;20033;-76
2022/02/03 21:15:54;;;;;;;7.07;4.90;;;4.50;99.90;;;;;;5013970;28;20022;-76
2022/02/03 21:18:20;;;;;;;6.37;4.90;;;4.50;99.90;;;;;;5013527;28;20014;-76
2022/02/03 21:20:47;;;;;;;7.43;5.13;;;4.40;99.90;;;;;;5013668;28;20426;-76
2022/02/03 21:23:13;;;;;;;6.63;4.40;;;4.40;99.90;;;;;;5013429;28;20049;-76
2022/02/03 21:25:50;;;;;;;5.63;4.20;;;4.30;99.90;;;;;;5013838;28;20093;-76
2022/02/03 21:28:22;;;;;;;8.50;4.20;;;4.30;99.90;;;;;;5013289;28;20021;-77
2022/02/03 21:30:48;;;;;;;6.13;3.93;;;4.30;99.90;;;;;;4996199;28;20404;-76
2022/02/03 21:33:20;;;;;;;5.47;4.00;;;4.30;99.90;;;;;;5013386;28;20040;-77
2022/02/03 21:35:47;;;;;;;5.27;3.80;;;4.20;99.90;;;;;;5012878;28;20088;-77
2022/02/03 21:38:13;;;;;;;6.93;4.93;;;4.20;99.90;;;;;;5013410;28;20374;-77
2022/02/03 21:40:39;;;;;;;15.93;9.03;;;4.20;99.90;;;;;;5013285;28;20032;-76
2022/02/03 21:43:05;;;;;;;14.70;7.93;;;4.10;99.90;;;;;;5013569;28;20022;-77
2022/02/03 21:45:31;;;;;;;8.50;5.80;;;4.10;99.90;;;;;;5013297;28;20398;-76
2022/02/03 21:47:58;;;;;;;12.30;6.40;;;4.10;99.90;;;;;;5013380;28;20022;-77
2022/02/03 21:50:29;;;;;;;11.77;6.43;;;4.00;99.90;;;;;;5012892;28;20029;-76
2022/02/03 21:52:55;;;;;;;12.90;8.37;;;4.00;99.90;;;;;;5012974;28;20083;-76
2022/02/03 21:55:21;;;;;;;14.40;7.60;;;4.00;99.90;;;;;;5012943;28;20022;-77
2022/02/03 21:57:51;;;;;;;10.30;6.20;;;4.10;99.90;;;;;;5012937;28;20023;-76
2022/02/03 22:00:18;;;;;;;10.07;5.73;;;4.00;99.90;;;;;;5017306;28;20486;-77
2022/02/03 22:02:44;;;;;;;9.13;5.73;;;3.90;99.90;;;;;;5019522;28;20514;-76
2022/02/03 22:05:12;;;;;;;10.70;6.13;;;3.80;99.90;;;;;;5019527;28;20109;-76
2022/02/03 22:07:43;;;;;;;12.63;7.20;;;3.70;99.90;;;;;;5001685;28;20140;-76
2022/02/03 22:10:15;;;;;;;16.83;8.13;;;3.70;99.90;;;;;;5019345;28;20057;-77
2022/02/03 22:12:40;;;;;;;14.30;8.87;;;3.60;99.90;;;;;;5019267;28;20026;-77
2022/02/03 22:15:07;;;;;;;12.67;6.70;;;3.50;99.90;;;;;;5019296;28;20026;-77
2022/02/03 22:17:33;;;;;;;12.13;6.43;;;3.40;99.90;;;;;;5019687;28;20030;-76
2022/02/03 22:20:03;;;;;;;12.13;6.50;;;3.40;99.90;;;;;;5001667;28;20048;-77
2022/02/03 22:23:20;;;;;;;13.23;6.67;;;3.30;99.90;;;;;;5019365;28;20021;-76
2022/02/03 22:28:06;;;;;;;12.13;6.73;;;3.20;99.90;;;;;;5003061;28;20064;-77
2022/02/03 22:39:04;;;;;;;9.97;5.80;;;2.90;99.90;;;;;;5019826;28;20084;-76
2022/02/03 22:44:29;;;;;;;9.70;5.97;;;2.70;99.90;;;;;;5019577;28;20024;-76
2022/02/03 22:49:42;;;;;;;10.20;5.67;;;2.60;99.90;;;;;;4988777;28;20379;-76
2022/02/03 22:52:07;;;;;;;9.17;6.60;;;2.50;99.90;;;;;;5019192;28;20105;-77
2022/02/03 22:54:33;;;;;;;8.40;5.80;;;2.40;99.90;;;;;;5019233;28;20475;-77
2022/02/03 22:56:59;;;;;;;8.97;5.70;;;2.40;99.90;;;;;;5019114;28;20033;-77
2022/02/03 23:02:05;;;;;;;10.40;6.50;;;2.30;99.90;;;;;;5019386;28;20022;-76
2022/02/03 23:04:31;;;;;;;9.77;6.13;;;2.20;99.90;;;;;;5019104;28;20383;-77
2022/02/03 23:07:06;;;;;;;9.93;6.43;;;2.20;99.90;;;;;;5018994;28;20840;-77
2022/02/03 23:09:44;;;;;;;13.25;7.43;;;2.10;99.90;;;;;;5018993;28;20026;-86
2022/02/03 23:12:29;;;;;;;17.13;8.10;;;2.20;99.90;;;;;;4995895;28;20039;-86
2022/02/03 23:20:17;;;;;;;12.50;7.63;;;2.20;99.90;;;;;;5013977;28;20022;-86
2022/02/03 23:22:51;;;;;;;13.03;8.47;;;2.20;99.90;;;;;;5011288;28;20029;-85
2022/02/03 23:25:19;;;;;;;10.83;6.80;;;2.20;99.90;;;;;;5005878;28;20080;-86
2022/02/03 23:30:20;;;;;;;11.10;6.37;;;2.20;99.90;;;;;;5013423;28;20434;-86
2022/02/03 23:32:47;;;;;;;9.10;5.60;;;2.20;99.90;;;;;;5013629;28;20431;-86
2022/02/03 23:35:25;;;;;;;9.57;5.53;;;2.20;99.90;;;;;;4992709;28;20395;-85
2022/02/03 23:37:57;;;;;;;9.50;5.97;;;2.20;99.90;;;;;;4992536;28;20042;-85
2022/02/03 23:43:57;;;;;;;10.17;5.23;;;2.20;99.90;;;;;;4996307;28;20033;-85
